createdAt,value
2018-01-21T00:02:11.823Z,79.50
2018-01-21T00:04:40.068Z,79.80
2018-01-21T00:07:07.691Z,80.00
2018-01-21T00:09:35.214Z,80.10
2018-01-21T00:12:02.814Z,80.20
2018-01-21T00:14:30.402Z,79.80
2018-01-21T00:16:58.678Z,79.60
2018-01-21T00:19:26.962Z,79.80
2018-01-21T00:21:54.739Z,79.70
2018-01-21T00:24:22.507Z,79.90
2018-01-21T00:26:50.022Z,80.10
2018-01-21T00:29:17.513Z,80.20
2018-01-21T00:31:45.012Z,80.30
2018-01-21T00:34:12.869Z,80.10
2018-01-21T00:36:40.398Z,80.90
2018-01-21T00:39:08.255Z,80.20
2018-01-21T00:41:37.170Z,80.50
2018-01-21T00:44:06.006Z,80.50
2018-01-21T00:46:33.748Z,80.90
2018-01-21T00:49:01.560Z,80.80
2018-01-21T00:51:29.085Z,80.90
2018-01-21T00:53:56.908Z,80.90
2018-01-21T00:56:24.440Z,80.90
2018-01-21T00:58:52.729Z,81.20
2018-01-21T01:01:20.258Z,81.20
2018-01-21T01:03:47.790Z,81.20
2018-01-21T01:06:15.752Z,81.90
2018-01-21T01:08:43.243Z,81.00
2018-01-21T01:11:10.763Z,80.70
2018-01-21T01:13:38.276Z,80.80
2018-01-21T01:16:06.587Z,80.60
2018-01-21T01:18:34.083Z,80.60
2018-01-21T01:21:01.898Z,80.50
2018-01-21T01:23:29.577Z,80.30
2018-01-21T01:25:57.076Z,80.30
2018-01-21T01:28:24.662Z,80.30
2018-01-21T01:30:52.511Z,80.10
2018-01-21T01:33:20.908Z,79.60
2018-01-21T01:35:49.190Z,79.80
2018-01-21T01:38:17.434Z,79.80
2018-01-21T01:40:44.932Z,79.60
2018-01-21T01:43:13.204Z,79.80
2018-01-21T01:45:40.750Z,79.70
2018-01-21T01:48:08.267Z,79.80
2018-01-21T01:50:35.822Z,79.80
2018-01-21T01:53:03.338Z,79.60
2018-01-21T01:55:31.578Z,79.40
2018-01-21T01:57:59.122Z,79.40
2018-01-21T02:00:26.745Z,79.00
2018-01-21T02:02:54.254Z,79.20
2018-01-21T02:05:21.758Z,78.90
2018-01-21T02:07:50.136Z,78.70
2018-01-21T02:10:18.277Z,78.70
2018-01-21T02:12:47.455Z,78.50
2018-01-21T02:15:14.958Z,78.50
2018-01-21T02:17:43.426Z,78.30
2018-01-21T02:20:10.923Z,78.10
2018-01-21T02:22:38.537Z,78.10
2018-01-21T02:25:07.176Z,77.70
2018-01-21T02:27:36.720Z,77.70
2018-01-21T02:30:05.746Z,77.70
2018-01-21T02:32:34.022Z,78.00
2018-01-21T02:35:01.544Z,77.90
2018-01-21T02:37:29.097Z,78.10
2018-01-21T02:39:56.609Z,78.30
2018-01-21T02:42:24.148Z,78.50
2018-01-21T02:44:51.653Z,78.50
2018-01-21T02:47:19.330Z,78.60
2018-01-21T02:49:48.313Z,78.60
2018-01-21T02:52:16.025Z,78.90
2018-01-21T02:54:43.521Z,79.30
2018-01-21T02:57:11.495Z,79.10
2018-01-21T02:59:39.633Z,79.30
2018-01-21T03:02:07.195Z,79.60
2018-01-21T03:04:36.873Z,79.70
2018-01-21T03:07:04.610Z,79.70
2018-01-21T03:09:32.109Z,79.60
2018-01-21T03:11:59.616Z,79.60
2018-01-21T03:14:27.289Z,79.90
2018-01-21T03:16:54.797Z,79.80
2018-01-21T03:19:22.344Z,79.80
2018-01-21T03:21:50.569Z,79.60
2018-01-21T03:24:18.180Z,79.70
2018-01-21T03:26:46.395Z,79.70
2018-01-21T03:29:13.926Z,79.60
2018-01-21T03:31:41.461Z,79.60
2018-01-21T03:34:08.966Z,79.70
2018-01-21T03:36:36.629Z,79.80
2018-01-21T03:39:04.180Z,79.80
2018-01-21T03:41:32.024Z,79.90
2018-01-21T03:43:59.587Z,80.00
2018-01-21T03:46:27.243Z,80.00
2018-01-21T03:48:54.799Z,80.00
2018-01-21T03:51:22.374Z,80.40
2018-01-21T03:53:50.107Z,80.10
2018-01-21T03:56:17.706Z,80.00
2018-01-21T03:58:45.968Z,80.00
2018-01-21T04:01:13.795Z,79.90
2018-01-21T04:03:41.301Z,80.20
2018-01-21T04:06:09.614Z,80.00
2018-01-21T04:08:37.143Z,79.90
2018-01-21T04:11:05.474Z,80.70
2018-01-21T04:13:33.140Z,80.70
2018-01-21T04:16:00.644Z,81.00
2018-01-21T04:18:28.202Z,81.00
2018-01-21T04:20:55.897Z,81.10
2018-01-21T04:23:23.449Z,81.20
2018-01-21T04:25:50.960Z,81.20
2018-01-21T04:28:18.490Z,80.80
2018-01-21T04:30:46.017Z,80.70
2018-01-21T04:33:14.313Z,80.20
2018-01-21T04:35:41.864Z,80.20
2018-01-21T04:38:09.370Z,80.00
2018-01-21T04:40:36.920Z,80.00
2018-01-21T04:43:04.450Z,79.90
2018-01-21T04:45:32.130Z,80.10
2018-01-21T04:47:59.984Z,79.80
2018-01-21T04:50:27.564Z,79.60
2018-01-21T04:52:55.157Z,79.90
2018-01-21T04:55:22.695Z,80.20
2018-01-21T04:57:50.230Z,80.10
2018-01-21T05:00:17.780Z,80.20
2018-01-21T05:02:45.579Z,80.30
2018-01-21T05:05:13.086Z,80.40
2018-01-21T05:07:40.702Z,80.30
2018-01-21T05:10:09.021Z,80.00
2018-01-21T05:12:37.214Z,79.60
2018-01-21T05:15:04.743Z,79.90
2018-01-21T05:17:32.886Z,79.30
2018-01-21T05:20:00.489Z,79.20
2018-01-21T05:22:28.701Z,79.50
2018-01-21T05:24:56.244Z,79.20
2018-01-21T05:27:23.750Z,79.10
2018-01-21T05:29:51.255Z,79.40
2018-01-21T05:32:18.898Z,79.30
2018-01-21T05:34:47.165Z,79.40
2018-01-21T05:37:14.749Z,79.40
2018-01-21T05:39:42.417Z,80.80
2018-01-21T05:42:09.949Z,80.30
2018-01-21T05:44:37.475Z,80.60
2018-01-21T05:47:05.154Z,80.50
2018-01-21T05:49:32.655Z,80.30
2018-01-21T05:52:00.176Z,80.70
2018-01-21T05:54:28.494Z,81.40
2018-01-21T05:56:56.661Z,81.40
2018-01-21T05:59:24.805Z,81.30
2018-01-21T06:01:52.707Z,81.40
2018-01-21T06:04:20.214Z,81.20
2018-01-21T06:06:48.497Z,81.40
2018-01-21T06:09:16.403Z,81.30
2018-01-21T06:11:43.895Z,81.60
2018-01-21T06:14:12.366Z,81.50
2018-01-21T06:16:40.082Z,81.60
2018-01-21T06:19:09.174Z,81.70
2018-01-21T06:21:37.472Z,81.70
2018-01-21T06:24:05.881Z,81.60
2018-01-21T06:26:33.414Z,81.60
2018-01-21T06:29:01.084Z,81.90
2018-01-21T06:31:28.629Z,82.00
2018-01-21T06:33:56.155Z,81.90
2018-01-21T06:36:24.715Z,81.40
2018-01-21T06:38:52.218Z,81.50
2018-01-21T06:41:19.700Z,81.50
2018-01-21T06:43:47.942Z,81.30
2018-01-21T06:46:16.344Z,80.90
2018-01-21T06:48:44.656Z,80.60
2018-01-21T06:51:12.726Z,80.60
2018-01-21T06:53:40.378Z,80.70
2018-01-21T06:56:07.899Z,80.90
2018-01-21T06:58:36.199Z,81.00
2018-01-21T07:01:04.025Z,81.30
2018-01-21T07:03:31.565Z,81.60
2018-01-21T07:05:59.330Z,81.70
2018-01-21T07:08:26.854Z,81.10
2018-01-21T07:10:54.742Z,80.80
2018-01-21T07:13:22.274Z,80.80
2018-01-21T07:15:49.846Z,81.10
2018-01-21T07:18:17.414Z,81.40
2018-01-21T07:20:45.367Z,81.60
2018-01-21T07:23:12.950Z,81.70
2018-01-21T07:25:41.421Z,81.50
2018-01-21T07:28:08.928Z,81.20
2018-01-21T07:30:36.563Z,81.20
2018-01-21T07:33:04.270Z,81.00
2018-01-21T07:35:32.668Z,80.40
2018-01-21T07:38:00.233Z,80.50
2018-01-21T07:40:27.851Z,80.60
2018-01-21T07:42:55.482Z,80.60
2018-01-21T07:45:23.019Z,80.60
2018-01-21T07:47:50.569Z,81.10
2018-01-21T07:50:18.110Z,80.00
2018-01-21T07:52:46.925Z,80.30
2018-01-21T07:55:14.592Z,80.30
2018-01-21T07:57:42.891Z,79.70
2018-01-21T08:00:10.527Z,78.30
2018-01-21T08:02:38.139Z,78.60
2018-01-21T08:05:06.458Z,79.00
2018-01-21T08:07:34.000Z,79.00
2018-01-21T08:10:02.316Z,79.10
2018-01-21T08:12:29.850Z,79.00
2018-01-21T08:14:57.534Z,78.30
2018-01-21T08:17:25.393Z,77.80
2018-01-21T08:19:53.002Z,77.70
2018-01-21T08:22:21.908Z,77.10
2018-01-21T08:24:49.441Z,77.00
2018-01-21T08:27:16.975Z,76.90
2018-01-21T08:29:44.521Z,76.50
2018-01-21T08:32:13.202Z,76.70
2018-01-21T08:34:46.366Z,76.70
2018-01-21T08:37:19.890Z,76.50
2018-01-21T08:39:53.056Z,77.80
2018-01-21T08:42:25.175Z,77.80
2018-01-21T08:44:52.814Z,77.70
2018-01-21T08:47:20.477Z,78.20
2018-01-21T08:49:50.858Z,75.80
2018-01-21T08:52:18.401Z,75.90
2018-01-21T08:54:47.002Z,75.50
2018-01-21T08:57:15.339Z,75.30
2018-01-21T08:59:42.875Z,75.20
2018-01-21T09:02:10.382Z,76.20
2018-01-21T09:04:44.598Z,76.50
2018-01-21T09:07:12.479Z,76.30
2018-01-21T09:09:40.898Z,76.60
2018-01-21T09:12:08.604Z,74.90
2018-01-21T09:14:36.136Z,75.20
2018-01-21T09:17:03.695Z,75.10
2018-01-21T09:19:31.272Z,76.20
2018-01-21T09:21:58.813Z,76.00
2018-01-21T09:24:26.569Z,76.00
2018-01-21T09:26:54.246Z,75.70
2018-01-21T09:29:21.840Z,75.00
2018-01-21T09:31:49.562Z,74.90
2018-01-21T09:34:17.433Z,75.10
2018-01-21T09:36:44.947Z,74.00
2018-01-21T09:39:12.523Z,73.70
2018-01-21T09:41:40.029Z,74.80
2018-01-21T09:44:07.557Z,74.30
2018-01-21T09:46:35.324Z,75.10
2018-01-21T09:49:02.887Z,74.20
2018-01-21T09:51:30.407Z,74.30
2018-01-21T09:53:57.907Z,73.40
2018-01-21T09:56:25.462Z,74.10
2018-01-21T09:58:52.958Z,75.10
2018-01-21T10:01:22.866Z,74.50
2018-01-21T10:03:50.558Z,74.10
2018-01-21T10:06:18.810Z,73.30
2018-01-21T10:08:46.753Z,73.30
2018-01-21T10:11:14.266Z,74.20
2018-01-21T10:13:42.539Z,74.00
2018-01-21T10:16:10.829Z,74.20
2018-01-21T10:18:39.082Z,74.20
2018-01-21T10:21:07.107Z,74.70
2018-01-21T10:23:34.600Z,75.30
2018-01-21T10:26:02.248Z,76.00
2018-01-21T10:28:29.877Z,75.60
2018-01-21T10:30:57.393Z,76.70
2018-01-21T10:33:24.899Z,76.60
2018-01-21T10:35:52.439Z,74.60
2018-01-21T10:38:20.650Z,74.60
2018-01-21T10:40:48.531Z,74.80
2018-01-21T10:43:16.136Z,74.90
2018-01-21T10:45:43.786Z,73.70
2018-01-21T10:48:13.220Z,74.10
2018-01-21T10:50:40.818Z,74.10
2018-01-21T10:53:08.645Z,74.30
2018-01-21T10:55:36.425Z,73.60
2018-01-21T10:58:03.935Z,73.60
2018-01-21T11:00:37.245Z,73.80
2018-01-21T11:03:06.181Z,74.30
2018-01-21T11:05:34.598Z,73.50
2018-01-21T11:08:02.614Z,73.50
2018-01-21T11:10:30.115Z,73.30
2018-01-21T11:12:57.752Z,73.40
2018-01-21T11:15:25.308Z,73.30
2018-01-21T11:17:54.009Z,72.50
2018-01-21T11:20:21.612Z,71.60
2018-01-21T11:22:50.588Z,70.30
2018-01-21T11:25:18.889Z,69.50
2018-01-21T11:27:46.464Z,69.90
2018-01-21T11:30:13.989Z,69.30
2018-01-21T11:32:41.654Z,69.30
2018-01-21T11:35:09.199Z,69.00
2018-01-21T11:37:36.805Z,68.60
2018-01-21T11:40:04.380Z,68.70
2018-01-21T11:42:32.134Z,69.10
2018-01-21T11:44:59.895Z,68.90
2018-01-21T11:47:27.397Z,69.30
2018-01-21T11:49:55.594Z,68.90
2018-01-21T11:52:23.135Z,69.70
2018-01-21T11:54:50.753Z,69.00
2018-01-21T11:57:18.410Z,69.00
2018-01-21T11:59:46.200Z,67.90
2018-01-21T12:02:14.292Z,67.80
2018-01-21T12:04:42.030Z,68.20
2018-01-21T12:07:10.364Z,68.30
2018-01-21T12:09:37.958Z,68.30
2018-01-21T12:12:05.464Z,68.00
2018-01-21T12:14:33.456Z,68.40
2018-01-21T12:17:01.019Z,67.80
2018-01-21T12:19:28.563Z,68.70
2018-01-21T12:21:57.036Z,69.50
2018-01-21T12:24:25.190Z,69.50
2018-01-21T12:26:52.731Z,69.90
2018-01-21T12:29:20.412Z,70.70
2018-01-21T12:31:49.410Z,70.50
2018-01-21T12:34:17.435Z,70.20
2018-01-21T12:36:45.515Z,70.00
2018-01-21T12:39:13.040Z,69.80
2018-01-21T12:41:41.366Z,69.30
2018-01-21T12:44:08.883Z,69.20
2018-01-21T12:46:36.418Z,69.10
2018-01-21T12:49:04.015Z,69.80
2018-01-21T12:51:31.509Z,69.30
2018-01-21T12:53:59.456Z,69.10
2018-01-21T12:56:27.885Z,69.30
2018-01-21T12:58:56.925Z,69.30
2018-01-21T13:01:24.696Z,69.20
2018-01-21T13:03:52.257Z,69.60
2018-01-21T13:06:19.883Z,69.80
2018-01-21T13:08:48.242Z,69.70
2018-01-21T13:11:15.764Z,69.70
2018-01-21T13:13:43.372Z,69.60
2018-01-21T13:16:10.921Z,69.60
2018-01-21T13:18:38.455Z,69.30
2018-01-21T13:21:06.728Z,69.40
2018-01-21T13:23:34.249Z,70.10
2018-01-21T13:26:01.831Z,71.10
2018-01-21T13:28:34.323Z,71.70
2018-01-21T13:31:02.591Z,71.50
2018-01-21T13:33:30.200Z,71.90
2018-01-21T13:35:57.726Z,72.20
2018-01-21T13:38:25.596Z,71.50
2018-01-21T13:40:53.466Z,71.40
2018-01-21T13:43:21.087Z,71.50
2018-01-21T13:45:48.616Z,71.70
2018-01-21T13:48:16.167Z,71.10
2018-01-21T13:50:43.696Z,71.20
2018-01-21T13:53:11.211Z,70.50
2018-01-21T13:55:38.797Z,70.90
2018-01-21T13:58:06.379Z,71.40
2018-01-21T14:00:34.043Z,71.10
2018-01-21T14:03:01.596Z,70.90
2018-01-21T14:05:29.094Z,71.10
2018-01-21T14:07:56.687Z,70.60
2018-01-21T14:10:24.336Z,70.80
2018-01-21T14:12:51.909Z,70.00
2018-01-21T14:15:19.443Z,69.80
2018-01-21T14:17:47.132Z,69.30
2018-01-21T14:20:15.512Z,69.60
2018-01-21T14:22:43.850Z,68.70
2018-01-21T14:25:11.562Z,68.70
2018-01-21T14:27:39.963Z,68.20
2018-01-21T14:30:07.519Z,68.30
2018-01-21T14:32:35.110Z,68.30
2018-01-21T14:35:02.862Z,69.00
2018-01-21T14:37:30.363Z,69.90
2018-01-21T14:39:59.515Z,70.30
2018-01-21T14:42:27.585Z,70.10
2018-01-21T14:44:55.136Z,70.70
2018-01-21T14:47:22.996Z,71.00
2018-01-21T14:49:50.505Z,71.20
2018-01-21T14:52:18.004Z,72.00
2018-01-21T14:54:45.573Z,71.30
2018-01-21T14:57:13.132Z,72.00
2018-01-21T14:59:40.657Z,72.10
2018-01-21T15:02:08.929Z,72.60
2018-01-21T15:04:37.210Z,72.60
2018-01-21T15:07:05.496Z,72.50
2018-01-21T15:09:33.849Z,73.20
2018-01-21T15:12:02.195Z,71.90
2018-01-21T15:14:29.700Z,71.90
2018-01-21T15:16:57.993Z,72.60
2018-01-21T15:19:25.523Z,71.90
2018-01-21T15:21:53.799Z,72.20
2018-01-21T15:24:22.350Z,72.10
2018-01-21T15:26:49.910Z,72.00
2018-01-21T15:29:17.534Z,72.30
2018-01-21T15:31:45.696Z,72.20
2018-01-21T15:34:13.269Z,72.20
2018-01-21T15:36:40.772Z,72.50
2018-01-21T15:39:08.362Z,73.00
2018-01-21T15:41:35.859Z,72.90
2018-01-21T15:44:03.443Z,73.50
2018-01-21T15:46:31.033Z,73.30
2018-01-21T15:48:58.974Z,72.70
2018-01-21T15:51:26.962Z,72.40
2018-01-21T15:53:54.504Z,72.20
2018-01-21T15:56:22.009Z,72.00
2018-01-21T15:58:50.230Z,72.50
2018-01-21T16:01:17.758Z,72.00
2018-01-21T16:03:45.285Z,72.50
2018-01-21T16:06:13.682Z,71.60
2018-01-21T16:08:41.275Z,71.50
2018-01-21T16:11:08.902Z,71.80
2018-01-21T16:13:37.186Z,71.50
2018-01-21T16:16:05.478Z,71.70
2018-01-21T16:18:34.117Z,71.60
2018-01-21T16:21:01.748Z,71.70
2018-01-21T16:23:29.419Z,71.50
2018-01-21T16:25:57.887Z,71.20
2018-01-21T16:28:25.450Z,71.20
2018-01-21T16:30:53.055Z,71.70
2018-01-21T16:33:20.674Z,71.60
2018-01-21T16:35:48.234Z,71.30
2018-01-21T16:38:27.708Z,71.60
2018-01-21T16:40:55.354Z,71.60
2018-01-21T16:43:22.983Z,71.30
2018-01-21T16:45:50.508Z,71.30
2018-01-21T16:48:18.019Z,71.60
2018-01-21T16:50:45.675Z,71.00
2018-01-21T16:53:14.035Z,70.50
2018-01-21T16:55:42.701Z,70.50
2018-01-21T16:58:11.380Z,71.10
2018-01-21T17:00:39.677Z,71.80
2018-01-21T17:03:08.720Z,70.90
2018-01-21T17:05:36.285Z,70.90
2018-01-21T17:08:03.809Z,70.80
2018-01-21T17:10:31.470Z,70.90
2018-01-21T17:12:59.044Z,70.70
2018-01-21T17:15:26.786Z,70.70
2018-01-21T17:17:54.971Z,70.30
2018-01-21T17:20:23.948Z,69.90
2018-01-21T17:22:52.346Z,70.20
2018-01-21T17:25:19.851Z,70.90
2018-01-21T17:27:48.147Z,71.10
2018-01-21T17:30:15.684Z,71.10
2018-01-21T17:32:43.205Z,70.80
2018-01-21T17:35:10.702Z,70.40
2018-01-21T17:37:38.244Z,70.90
2018-01-21T17:40:05.770Z,70.70
2018-01-21T17:42:33.441Z,70.60
2018-01-21T17:45:01.042Z,70.10
2018-01-21T17:47:29.242Z,71.10
2018-01-21T17:49:56.782Z,70.70
2018-01-21T17:52:24.885Z,70.90
2018-01-21T17:54:52.613Z,71.00
2018-01-21T17:57:20.351Z,71.20
2018-01-21T17:59:47.890Z,70.60
2018-01-21T18:02:15.404Z,70.00
2018-01-21T18:04:42.914Z,70.20
2018-01-21T18:07:10.461Z,70.00
2018-01-21T18:09:38.233Z,70.10
2018-01-21T18:12:05.794Z,69.50
2018-01-21T18:14:34.347Z,70.60
2018-01-21T18:17:02.653Z,69.60
2018-01-21T18:19:30.365Z,69.50
2018-01-21T18:21:57.958Z,70.50
2018-01-21T18:24:25.581Z,71.20
2018-01-21T18:26:53.509Z,69.90
2018-01-21T18:29:21.055Z,69.60
2018-01-21T18:31:48.853Z,69.70
2018-01-21T18:34:16.368Z,70.40
2018-01-21T18:36:44.665Z,70.20
2018-01-21T18:39:12.157Z,70.20
2018-01-21T18:41:40.207Z,69.80
2018-01-21T18:44:07.758Z,69.30
2018-01-21T18:46:35.519Z,69.50
2018-01-21T18:49:04.073Z,69.90
2018-01-21T18:51:32.363Z,69.30
2018-01-21T18:54:00.706Z,69.30
2018-01-21T18:56:30.222Z,70.30
2018-01-21T18:58:57.803Z,70.30
2018-01-21T19:01:26.115Z,69.90
2018-01-21T19:03:55.503Z,69.80
2018-01-21T19:06:23.097Z,69.50
2018-01-21T19:08:50.675Z,69.70
2018-01-21T19:11:18.242Z,70.20
2018-01-21T19:13:46.453Z,68.30
2018-01-21T19:16:15.834Z,68.90
2018-01-21T19:18:43.939Z,68.80
2018-01-21T19:21:11.447Z,70.00
2018-01-21T19:23:39.026Z,70.10
2018-01-21T19:26:06.668Z,68.40
2018-01-21T19:28:34.843Z,68.70
2018-01-21T19:31:03.196Z,69.20
2018-01-21T19:33:30.735Z,67.20
2018-01-21T19:35:59.271Z,67.80
2018-01-21T19:38:42.538Z,68.30
2018-01-21T19:41:10.104Z,69.60
2018-01-21T19:43:37.769Z,69.30
2018-01-21T19:46:06.138Z,68.10
2018-01-21T19:48:33.715Z,68.70
2018-01-21T19:51:01.428Z,68.10
2018-01-21T19:53:28.999Z,68.70
2018-01-21T19:55:56.872Z,68.50
2018-01-21T19:58:24.620Z,67.40
2018-01-21T20:00:53.329Z,67.50
2018-01-21T20:03:20.920Z,67.40
2018-01-21T20:05:48.449Z,68.00
2018-01-21T20:08:16.626Z,68.80
2018-01-21T20:10:44.212Z,69.50
2018-01-21T20:13:14.854Z,70.10
2018-01-21T20:15:42.382Z,69.60
2018-01-21T20:18:10.090Z,69.00
2018-01-21T20:20:37.598Z,68.40
2018-01-21T20:23:05.102Z,68.70
2018-01-21T20:25:33.061Z,69.40
2018-01-21T20:28:00.609Z,69.40
2018-01-21T20:30:28.171Z,68.80
2018-01-21T20:32:55.713Z,69.20
2018-01-21T20:35:23.249Z,69.70
2018-01-21T20:37:51.520Z,69.30
2018-01-21T20:40:19.084Z,69.30
2018-01-21T20:42:47.995Z,70.90
2018-01-21T20:45:15.588Z,70.90
2018-01-21T20:47:43.139Z,70.80
2018-01-21T20:50:11.667Z,71.30
2018-01-21T20:52:45.015Z,71.90
2018-01-21T20:55:14.285Z,70.60
2018-01-21T20:57:41.838Z,70.60
2018-01-21T21:00:10.248Z,71.20
2018-01-21T21:02:37.830Z,71.20
2018-01-21T21:05:06.770Z,70.70
2018-01-21T21:07:35.221Z,71.90
2018-01-21T21:10:03.645Z,71.90
2018-01-21T21:12:31.628Z,71.90
2018-01-21T21:15:00.104Z,71.60
2018-01-21T21:17:27.656Z,72.90
2018-01-21T21:19:56.260Z,72.30
2018-01-21T21:22:24.294Z,72.40
2018-01-21T21:24:52.508Z,72.20
2018-01-21T21:27:20.718Z,72.30
2018-01-21T21:29:49.370Z,72.80
2018-01-21T21:32:17.802Z,73.20
2018-01-21T21:34:45.360Z,73.80
2018-01-21T21:37:13.022Z,73.40
2018-01-21T21:39:40.643Z,72.20
2018-01-21T21:42:08.493Z,72.60
2018-01-21T21:44:37.068Z,72.90
2018-01-21T21:47:04.597Z,72.10
2018-01-21T21:49:32.122Z,72.10
2018-01-21T21:51:59.767Z,72.20
2018-01-21T21:54:27.358Z,71.30
2018-01-21T21:56:55.205Z,71.60
2018-01-21T21:59:23.334Z,72.50
2018-01-21T22:01:51.537Z,72.10
2018-01-21T22:04:19.558Z,73.40
2018-01-21T22:06:48.080Z,72.70
2018-01-21T22:09:15.950Z,72.60
2018-01-21T22:11:43.488Z,72.20
2018-01-21T22:14:11.913Z,72.70
2018-01-21T22:16:39.924Z,72.70
2018-01-21T22:19:08.287Z,72.20
2018-01-21T22:21:36.224Z,72.00
2018-01-21T22:24:03.754Z,71.90
2018-01-21T22:26:32.104Z,71.90
2018-01-21T22:28:59.651Z,72.90
2018-01-21T22:31:27.196Z,73.30
2018-01-21T22:33:54.756Z,73.10
2018-01-21T22:36:22.335Z,73.20
2018-01-21T22:38:49.882Z,73.50
2018-01-21T22:41:17.508Z,73.90
2018-01-21T22:43:45.046Z,74.50
2018-01-21T22:46:13.292Z,74.30
2018-01-21T22:48:40.829Z,74.80
2018-01-21T22:51:08.553Z,75.30
2018-01-21T22:53:37.142Z,75.00
2018-01-21T22:56:04.766Z,75.50
2018-01-21T22:58:32.399Z,75.30
2018-01-21T23:01:00.199Z,75.40
2018-01-21T23:03:29.399Z,73.90
2018-01-21T23:05:57.711Z,74.60
2018-01-21T23:08:25.467Z,74.30
2018-01-21T23:10:53.146Z,74.80
2018-01-21T23:13:20.848Z,75.20
2018-01-21T23:15:48.363Z,75.20
2018-01-21T23:18:16.055Z,75.30
2018-01-21T23:20:55.276Z,75.80
2018-01-21T23:23:22.925Z,75.80
2018-01-21T23:25:50.426Z,76.10
2018-01-21T23:28:18.036Z,77.30
2018-01-21T23:30:46.053Z,76.40
2018-01-21T23:33:13.630Z,76.30
2018-01-21T23:35:41.197Z,75.70
2018-01-21T23:38:09.692Z,75.50
2018-01-21T23:40:37.169Z,75.60
2018-01-21T23:43:04.843Z,75.50
2018-01-21T23:45:32.333Z,75.20
2018-01-21T23:47:59.882Z,75.20
2018-01-21T23:50:27.399Z,74.90
2018-01-21T23:52:54.932Z,75.40
2018-01-21T23:55:22.552Z,75.70
2018-01-21T23:57:50.111Z,76.10
